sensor_id;sensor_type;location;lat;lon;timestamp;temperature;humidity
26304;DHT22;57113;48.680;8.890;2022-12-13T00:01:11;5.90;92.70
26304;DHT22;57113;48.680;8.890;2022-12-13T00:03:37;5.90;92.80
26304;DHT22;57113;48.680;8.890;2022-12-13T00:06:08;5.90;92.80
26304;DHT22;57113;48.680;8.890;2022-12-13T00:08:35;6.00;92.70
26304;DHT22;57113;48.680;8.890;2022-12-13T00:11:02;6.00;92.70
26304;DHT22;57113;48.680;8.890;2022-12-13T00:13:28;6.10;92.50
26304;DHT22;57113;48.680;8.890;2022-12-13T00:15:58;6.20;92.40
26304;DHT22;57113;48.680;8.890;2022-12-13T00:18:25;6.20;92.30
26304;DHT22;57113;48.680;8.890;2022-12-13T00:20:50;6.20;92.40
26304;DHT22;57113;48.680;8.890;2022-12-13T00:23:16;6.20;92.30
26304;DHT22;57113;48.680;8.890;2022-12-13T00:25:42;6.20;92.70
26304;DHT22;57113;48.680;8.890;2022-12-13T00:28:07;6.30;92.30
26304;DHT22;57113;48.680;8.890;2022-12-13T00:30:34;6.30;92.30
26304;DHT22;57113;48.680;8.890;2022-12-13T00:32:59;6.20;92.30
26304;DHT22;57113;48.680;8.890;2022-12-13T00:35:25;6.20;92.30
26304;DHT22;57113;48.680;8.890;2022-12-13T00:37:51;6.20;92.30
26304;DHT22;57113;48.680;8.890;2022-12-13T00:40:16;6.10;92.20
26304;DHT22;57113;48.680;8.890;2022-12-13T00:42:42;6.10;92.30
26304;DHT22;57113;48.680;8.890;2022-12-13T00:45:08;6.10;92.40
26304;DHT22;57113;48.680;8.890;2022-12-13T00:47:35;6.00;92.40
26304;DHT22;57113;48.680;8.890;2022-12-13T00:50:02;6.00;92.30
26304;DHT22;57113;48.680;8.890;2022-12-13T00:52:27;6.00;92.40
26304;DHT22;57113;48.680;8.890;2022-12-13T00:54:53;5.90;92.40
26304;DHT22;57113;48.680;8.890;2022-12-13T00:57:18;5.90;92.40
26304;DHT22;57113;48.680;8.890;2022-12-13T00:59:45;5.90;92.50
26304;DHT22;57113;48.680;8.890;2022-12-13T01:02:11;5.90;92.50
26304;DHT22;57113;48.680;8.890;2022-12-13T01:04:36;5.90;92.50
26304;DHT22;57113;48.680;8.890;2022-12-13T01:07:02;5.90;92.50
26304;DHT22;57113;48.680;8.890;2022-12-13T01:09:28;5.90;92.40
26304;DHT22;57113;48.680;8.890;2022-12-13T01:11:57;6.00;92.30
26304;DHT22;57113;48.680;8.890;2022-12-13T01:14:23;6.10;92.20
26304;DHT22;57113;48.680;8.890;2022-12-13T01:16:48;6.10;92.10
26304;DHT22;57113;48.680;8.890;2022-12-13T01:19:14;6.10;92.10
26304;DHT22;57113;48.680;8.890;2022-12-13T01:21:40;6.10;92.00
26304;DHT22;57113;48.680;8.890;2022-12-13T01:24:06;6.20;92.10
26304;DHT22;57113;48.680;8.890;2022-12-13T01:26:32;6.10;92.00
26304;DHT22;57113;48.680;8.890;2022-12-13T01:28:58;6.20;92.00
26304;DHT22;57113;48.680;8.890;2022-12-13T01:31:24;6.20;92.00
26304;DHT22;57113;48.680;8.890;2022-12-13T01:33:50;6.10;91.90
26304;DHT22;57113;48.680;8.890;2022-12-13T01:36:17;6.10;91.90
26304;DHT22;57113;48.680;8.890;2022-12-13T01:38:44;6.00;92.00
26304;DHT22;57113;48.680;8.890;2022-12-13T01:41:14;6.00;92.00
26304;DHT22;57113;48.680;8.890;2022-12-13T01:46:05;5.90;92.00
26304;DHT22;57113;48.680;8.890;2022-12-13T01:48:39;5.90;92.00
26304;DHT22;57113;48.680;8.890;2022-12-13T01:51:08;5.90;92.10
26304;DHT22;57113;48.680;8.890;2022-12-13T01:53:36;5.80;92.00
26304;DHT22;57113;48.680;8.890;2022-12-13T01:56:11;5.80;92.10
26304;DHT22;57113;48.680;8.890;2022-12-13T01:58:39;5.80;92.10
26304;DHT22;57113;48.680;8.890;2022-12-13T02:01:05;5.80;92.20
26304;DHT22;57113;48.680;8.890;2022-12-13T02:03:32;5.70;92.10
26304;DHT22;57113;48.680;8.890;2022-12-13T02:06:11;5.80;92.20
26304;DHT22;57113;48.680;8.890;2022-12-13T02:08:39;5.80;92.40
26304;DHT22;57113;48.680;8.890;2022-12-13T02:11:06;5.90;92.20
26304;DHT22;57113;48.680;8.890;2022-12-13T02:13:31;6.00;91.90
26304;DHT22;57113;48.680;8.890;2022-12-13T02:16:11;6.10;91.80
26304;DHT22;57113;48.680;8.890;2022-12-13T02:21:31;6.00;91.70
26304;DHT22;57113;48.680;8.890;2022-12-13T02:24:36;6.10;91.70
26304;DHT22;57113;48.680;8.890;2022-12-13T02:27:49;6.10;91.70
26304;DHT22;57113;48.680;8.890;2022-12-13T02:30:23;6.10;91.70
26304;DHT22;57113;48.680;8.890;2022-12-13T02:40:59;5.90;91.70
26304;DHT22;57113;48.680;8.890;2022-12-13T02:43:37;5.90;91.70
26304;DHT22;57113;48.680;8.890;2022-12-13T02:46:06;5.80;91.70
26304;DHT22;57113;48.680;8.890;2022-12-13T02:48:36;5.80;91.80
26304;DHT22;57113;48.680;8.890;2022-12-13T02:51:04;5.80;92.10
26304;DHT22;57113;48.680;8.890;2022-12-13T02:53:32;5.70;91.80
26304;DHT22;57113;48.680;8.890;2022-12-13T02:55:58;5.70;91.80
26304;DHT22;57113;48.680;8.890;2022-12-13T02:58:29;5.70;91.80
26304;DHT22;57113;48.680;8.890;2022-12-13T03:04:22;5.60;92.20
26304;DHT22;57113;48.680;8.890;2022-12-13T03:09:55;5.70;91.70
26304;DHT22;57113;48.680;8.890;2022-12-13T03:15:23;5.90;91.50
26304;DHT22;57113;48.680;8.890;2022-12-13T03:18:06;5.90;91.50
26304;DHT22;57113;48.680;8.890;2022-12-13T03:20:51;5.90;91.40
26304;DHT22;57113;48.680;8.890;2022-12-13T03:23:17;5.90;91.40
26304;DHT22;57113;48.680;8.890;2022-12-13T03:25:45;5.90;91.40
26304;DHT22;57113;48.680;8.890;2022-12-13T03:28:12;5.90;91.30
26304;DHT22;57113;48.680;8.890;2022-12-13T03:30:38;5.90;91.30
26304;DHT22;57113;48.680;8.890;2022-12-13T03:33:04;6.00;91.30
26304;DHT22;57113;48.680;8.890;2022-12-13T03:35:30;5.90;91.30
26304;DHT22;57113;48.680;8.890;2022-12-13T03:37:56;5.90;91.20
26304;DHT22;57113;48.680;8.890;2022-12-13T03:40:22;5.80;91.30
26304;DHT22;57113;48.680;8.890;2022-12-13T03:42:48;5.80;91.40
26304;DHT22;57113;48.680;8.890;2022-12-13T03:45:13;5.70;91.40
26304;DHT22;57113;48.680;8.890;2022-12-13T03:47:39;5.70;91.40
26304;DHT22;57113;48.680;8.890;2022-12-13T03:50:05;5.70;91.50
26304;DHT22;57113;48.680;8.890;2022-12-13T03:52:31;5.60;91.50
26304;DHT22;57113;48.680;8.890;2022-12-13T03:54:56;5.60;91.50
26304;DHT22;57113;48.680;8.890;2022-12-13T03:57:22;5.60;91.50
26304;DHT22;57113;48.680;8.890;2022-12-13T03:59:48;5.60;91.50
26304;DHT22;57113;48.680;8.890;2022-12-13T04:02:13;5.50;91.50
26304;DHT22;57113;48.680;8.890;2022-12-13T04:04:39;5.50;91.60
26304;DHT22;57113;48.680;8.890;2022-12-13T04:07:04;5.60;91.60
26304;DHT22;57113;48.680;8.890;2022-12-13T04:09:30;5.60;91.80
26304;DHT22;57113;48.680;8.890;2022-12-13T04:11:56;5.70;91.40
26304;DHT22;57113;48.680;8.890;2022-12-13T04:14:40;5.80;91.20
26304;DHT22;57113;48.680;8.890;2022-12-13T04:17:05;5.80;91.20
26304;DHT22;57113;48.680;8.890;2022-12-13T04:19:31;5.90;91.20
26304;DHT22;57113;48.680;8.890;2022-12-13T04:21:56;5.90;91.10
26304;DHT22;57113;48.680;8.890;2022-12-13T04:24:23;5.90;91.10
26304;DHT22;57113;48.680;8.890;2022-12-13T04:26:49;5.80;91.00
26304;DHT22;57113;48.680;8.890;2022-12-13T04:29:15;5.90;91.00
26304;DHT22;57113;48.680;8.890;2022-12-13T04:31:41;5.80;91.00
26304;DHT22;57113;48.680;8.890;2022-12-13T04:34:06;5.80;91.00
26304;DHT22;57113;48.680;8.890;2022-12-13T04:36:32;5.80;90.90
26304;DHT22;57113;48.680;8.890;2022-12-13T04:39:00;5.80;91.00
26304;DHT22;57113;48.680;8.890;2022-12-13T04:41:25;5.70;91.00
26304;DHT22;57113;48.680;8.890;2022-12-13T04:43:52;5.70;91.10
26304;DHT22;57113;48.680;8.890;2022-12-13T04:46:19;5.60;91.10
26304;DHT22;57113;48.680;8.890;2022-12-13T04:48:45;5.70;91.10
26304;DHT22;57113;48.680;8.890;2022-12-13T04:51:11;5.70;91.00
26304;DHT22;57113;48.680;8.890;2022-12-13T04:53:37;5.80;91.00
26304;DHT22;57113;48.680;8.890;2022-12-13T04:56:04;5.80;90.80
26304;DHT22;57113;48.680;8.890;2022-12-13T04:58:30;5.90;90.80
26304;DHT22;57113;48.680;8.890;2022-12-13T05:00:56;5.90;90.80
26304;DHT22;57113;48.680;8.890;2022-12-13T05:03:22;5.90;90.80
26304;DHT22;57113;48.680;8.890;2022-12-13T05:05:48;5.90;90.80
26304;DHT22;57113;48.680;8.890;2022-12-13T05:08:13;5.90;90.80
26304;DHT22;57113;48.680;8.890;2022-12-13T05:10:39;5.90;90.80
26304;DHT22;57113;48.680;8.890;2022-12-13T05:13:05;5.80;90.70
26304;DHT22;57113;48.680;8.890;2022-12-13T05:15:31;5.80;90.70
26304;DHT22;57113;48.680;8.890;2022-12-13T05:18:04;5.90;90.70
26304;DHT22;57113;48.680;8.890;2022-12-13T05:20:30;5.90;90.60
26304;DHT22;57113;48.680;8.890;2022-12-13T05:22:56;5.90;90.70
26304;DHT22;57113;48.680;8.890;2022-12-13T05:25:25;5.90;90.60
26304;DHT22;57113;48.680;8.890;2022-12-13T05:27:51;5.80;90.60
26304;DHT22;57113;48.680;8.890;2022-12-13T05:30:18;5.80;90.60
26304;DHT22;57113;48.680;8.890;2022-12-13T05:32:44;5.80;90.60
26304;DHT22;57113;48.680;8.890;2022-12-13T05:35:10;5.80;90.60
26304;DHT22;57113;48.680;8.890;2022-12-13T05:37:35;5.80;90.60
26304;DHT22;57113;48.680;8.890;2022-12-13T05:40:01;5.80;90.60
26304;DHT22;57113;48.680;8.890;2022-12-13T05:42:26;5.70;90.60
26304;DHT22;57113;48.680;8.890;2022-12-13T05:44:52;5.70;90.70
26304;DHT22;57113;48.680;8.890;2022-12-13T05:47:18;5.60;90.60
26304;DHT22;57113;48.680;8.890;2022-12-13T05:49:44;5.60;90.70
26304;DHT22;57113;48.680;8.890;2022-12-13T05:52:17;5.60;90.80
26304;DHT22;57113;48.680;8.890;2022-12-13T05:54:43;5.50;90.70
26304;DHT22;57113;48.680;8.890;2022-12-13T05:57:09;5.50;90.80
26304;DHT22;57113;48.680;8.890;2022-12-13T05:59:34;5.40;90.80
26304;DHT22;57113;48.680;8.890;2022-12-13T06:02:00;5.40;91.20
26304;DHT22;57113;48.680;8.890;2022-12-13T06:04:26;5.40;90.90
26304;DHT22;57113;48.680;8.890;2022-12-13T06:06:51;5.40;90.90
26304;DHT22;57113;48.680;8.890;2022-12-13T06:09:18;5.50;90.80
26304;DHT22;57113;48.680;8.890;2022-12-13T06:11:44;5.60;90.80
26304;DHT22;57113;48.680;8.890;2022-12-13T06:14:09;5.70;90.70
26304;DHT22;57113;48.680;8.890;2022-12-13T06:16:35;5.70;90.50
26304;DHT22;57113;48.680;8.890;2022-12-13T06:19:01;5.80;90.50
26304;DHT22;57113;48.680;8.890;2022-12-13T06:21:27;5.80;90.40
26304;DHT22;57113;48.680;8.890;2022-12-13T06:23:53;5.80;90.70
26304;DHT22;57113;48.680;8.890;2022-12-13T06:26:19;5.70;90.40
26304;DHT22;57113;48.680;8.890;2022-12-13T06:28:44;5.80;90.40
26304;DHT22;57113;48.680;8.890;2022-12-13T06:31:10;5.70;90.30
26304;DHT22;57113;48.680;8.890;2022-12-13T06:33:36;5.70;90.30
26304;DHT22;57113;48.680;8.890;2022-12-13T06:36:03;5.70;90.30
26304;DHT22;57113;48.680;8.890;2022-12-13T06:38:29;5.60;90.30
26304;DHT22;57113;48.680;8.890;2022-12-13T06:43:33;5.60;90.40
26304;DHT22;57113;48.680;8.890;2022-12-13T06:46:00;5.50;90.70
26304;DHT22;57113;48.680;8.890;2022-12-13T06:48:26;5.50;90.40
26304;DHT22;57113;48.680;8.890;2022-12-13T06:50:52;5.40;90.40
26304;DHT22;57113;48.680;8.890;2022-12-13T06:53:17;5.40;90.50
26304;DHT22;57113;48.680;8.890;2022-12-13T06:55:43;5.40;90.60
26304;DHT22;57113;48.680;8.890;2022-12-13T06:58:08;5.30;90.60
26304;DHT22;57113;48.680;8.890;2022-12-13T07:00:34;5.30;90.60
26304;DHT22;57113;48.680;8.890;2022-12-13T07:03:00;5.30;90.60
26304;DHT22;57113;48.680;8.890;2022-12-13T07:05:26;5.30;90.70
26304;DHT22;57113;48.680;8.890;2022-12-13T07:07:52;5.40;91.00
26304;DHT22;57113;48.680;8.890;2022-12-13T07:10:17;5.40;90.50
26304;DHT22;57113;48.680;8.890;2022-12-13T07:12:43;5.50;90.50
26304;DHT22;57113;48.680;8.890;2022-12-13T07:15:09;5.60;90.30
26304;DHT22;57113;48.680;8.890;2022-12-13T07:17:35;5.60;90.20
26304;DHT22;57113;48.680;8.890;2022-12-13T07:20:05;5.70;90.20
26304;DHT22;57113;48.680;8.890;2022-12-13T07:22:35;5.70;90.20
26304;DHT22;57113;48.680;8.890;2022-12-13T07:25:01;5.70;90.20
26304;DHT22;57113;48.680;8.890;2022-12-13T07:27:27;5.70;90.20
26304;DHT22;57113;48.680;8.890;2022-12-13T07:29:53;5.70;90.20
26304;DHT22;57113;48.680;8.890;2022-12-13T07:32:19;5.60;90.10
26304;DHT22;57113;48.680;8.890;2022-12-13T07:34:44;5.70;90.10
26304;DHT22;57113;48.680;8.890;2022-12-13T07:37:10;5.60;90.10
26304;DHT22;57113;48.680;8.890;2022-12-13T07:39:35;5.60;90.20
26304;DHT22;57113;48.680;8.890;2022-12-13T07:42:01;5.50;90.10
26304;DHT22;57113;48.680;8.890;2022-12-13T07:44:26;5.50;90.20
26304;DHT22;57113;48.680;8.890;2022-12-13T07:46:52;5.40;90.30
26304;DHT22;57113;48.680;8.890;2022-12-13T07:49:18;5.40;90.40
26304;DHT22;57113;48.680;8.890;2022-12-13T07:51:44;5.40;90.40
26304;DHT22;57113;48.680;8.890;2022-12-13T07:54:09;5.40;90.40
26304;DHT22;57113;48.680;8.890;2022-12-13T07:56:35;5.30;90.40
26304;DHT22;57113;48.680;8.890;2022-12-13T07:59:01;5.30;90.50
26304;DHT22;57113;48.680;8.890;2022-12-13T08:01:26;5.30;90.50
26304;DHT22;57113;48.680;8.890;2022-12-13T08:03:53;5.30;90.50
26304;DHT22;57113;48.680;8.890;2022-12-13T08:06:19;5.20;90.50
26304;DHT22;57113;48.680;8.890;2022-12-13T08:08:44;5.20;90.60
26304;DHT22;57113;48.680;8.890;2022-12-13T08:11:12;5.20;90.60
26304;DHT22;57113;48.680;8.890;2022-12-13T08:13:40;5.20;90.60
26304;DHT22;57113;48.680;8.890;2022-12-13T08:16:07;5.20;90.60
26304;DHT22;57113;48.680;8.890;2022-12-13T08:18:34;5.20;90.60
26304;DHT22;57113;48.680;8.890;2022-12-13T08:21:02;5.20;90.70
26304;DHT22;57113;48.680;8.890;2022-12-13T08:23:29;5.20;90.70
26304;DHT22;57113;48.680;8.890;2022-12-13T08:25:55;5.20;90.80
26304;DHT22;57113;48.680;8.890;2022-12-13T08:28:22;5.30;90.70
26304;DHT22;57113;48.680;8.890;2022-12-13T08:30:48;5.40;90.60
26304;DHT22;57113;48.680;8.890;2022-12-13T08:33:14;5.50;90.50
26304;DHT22;57113;48.680;8.890;2022-12-13T08:35:40;5.60;90.50
26304;DHT22;57113;48.680;8.890;2022-12-13T08:38:06;5.70;90.30
26304;DHT22;57113;48.680;8.890;2022-12-13T08:40:32;5.80;90.20
26304;DHT22;57113;48.680;8.890;2022-12-13T08:42:57;5.90;90.20
26304;DHT22;57113;48.680;8.890;2022-12-13T08:45:23;5.80;90.20
26304;DHT22;57113;48.680;8.890;2022-12-13T08:47:50;5.90;90.30
26304;DHT22;57113;48.680;8.890;2022-12-13T08:50:15;5.50;78.90
26304;DHT22;57113;48.680;8.890;2022-12-13T08:52:41;5.10;75.90
26304;DHT22;57113;48.680;8.890;2022-12-13T08:55:11;4.60;75.30
26304;DHT22;57113;48.680;8.890;2022-12-13T08:57:37;3.80;75.40
26304;DHT22;57113;48.680;8.890;2022-12-13T09:00:04;2.80;77.90
26304;DHT22;57113;48.680;8.890;2022-12-13T09:02:30;1.80;79.80
26304;DHT22;57113;48.680;8.890;2022-12-13T09:04:56;1.40;83.40
26304;DHT22;57113;48.680;8.890;2022-12-13T09:07:22;1.50;86.00
26304;DHT22;57113;48.680;8.890;2022-12-13T09:09:47;1.60;87.70
26304;DHT22;57113;48.680;8.890;2022-12-13T09:12:13;1.80;88.70
26304;DHT22;57113;48.680;8.890;2022-12-13T09:14:39;2.00;89.30
26304;DHT22;57113;48.680;8.890;2022-12-13T09:17:04;2.20;89.90
26304;DHT22;57113;48.680;8.890;2022-12-13T09:19:30;2.40;90.00
26304;DHT22;57113;48.680;8.890;2022-12-13T09:21:56;2.60;90.10
26304;DHT22;57113;48.680;8.890;2022-12-13T09:24:21;3.00;90.10
26304;DHT22;57113;48.680;8.890;2022-12-13T09:26:47;3.60;92.70
26304;DHT22;57113;48.680;8.890;2022-12-13T09:29:13;3.90;90.10
26304;DHT22;57113;48.680;8.890;2022-12-13T09:31:41;4.20;88.70
26304;DHT22;57113;48.680;8.890;2022-12-13T09:34:07;4.60;90.20
26304;DHT22;57113;48.680;8.890;2022-12-13T09:36:33;4.80;87.50
26304;DHT22;57113;48.680;8.890;2022-12-13T09:38:58;5.10;87.20
26304;DHT22;57113;48.680;8.890;2022-12-13T09:41:51;5.30;86.80
26304;DHT22;57113;48.680;8.890;2022-12-13T09:44:22;5.40;86.50
26304;DHT22;57113;48.680;8.890;2022-12-13T09:46:49;5.40;86.50
26304;DHT22;57113;48.680;8.890;2022-12-13T09:51:54;5.50;87.00
26304;DHT22;57113;48.680;8.890;2022-12-13T09:54:23;5.60;87.00
26304;DHT22;57113;48.680;8.890;2022-12-13T09:56:50;5.70;86.80
26304;DHT22;57113;48.680;8.890;2022-12-13T09:59:31;5.80;87.60
26304;DHT22;57113;48.680;8.890;2022-12-13T10:02:15;5.80;86.90
26304;DHT22;57113;48.680;8.890;2022-12-13T10:04:42;5.80;87.20
26304;DHT22;57113;48.680;8.890;2022-12-13T10:07:19;5.90;87.30
26304;DHT22;57113;48.680;8.890;2022-12-13T10:09:45;6.10;92.30
26304;DHT22;57113;48.680;8.890;2022-12-13T10:12:14;6.20;92.40
26304;DHT22;57113;48.680;8.890;2022-12-13T10:14:46;6.00;87.20
26304;DHT22;57113;48.680;8.890;2022-12-13T10:17:17;6.00;87.40
26304;DHT22;57113;48.680;8.890;2022-12-13T10:19:45;6.10;87.50
26304;DHT22;57113;48.680;8.890;2022-12-13T10:22:13;6.30;89.40
26304;DHT22;57113;48.680;8.890;2022-12-13T10:24:59;6.40;93.00
26304;DHT22;57113;48.680;8.890;2022-12-13T10:27:32;6.20;87.40
26304;DHT22;57113;48.680;8.890;2022-12-13T10:35:59;6.30;87.80
26304;DHT22;57113;48.680;8.890;2022-12-13T10:40:41;6.30;87.70
26304;DHT22;57113;48.680;8.890;2022-12-13T10:43:25;6.30;87.90
26304;DHT22;57113;48.680;8.890;2022-12-13T10:49:11;6.20;88.30
26304;DHT22;57113;48.680;8.890;2022-12-13T10:51:10;6.10;88.50
26304;DHT22;57113;48.680;8.890;2022-12-13T10:53:57;6.00;88.80
26304;DHT22;57113;48.680;8.890;2022-12-13T10:56:35;5.90;89.00
26304;DHT22;57113;48.680;8.890;2022-12-13T10:59:25;5.90;89.40
26304;DHT22;57113;48.680;8.890;2022-12-13T11:01:50;5.90;89.70
26304;DHT22;57113;48.680;8.890;2022-12-13T11:04:36;5.80;89.90
26304;DHT22;57113;48.680;8.890;2022-12-13T11:07:26;5.80;90.00
26304;DHT22;57113;48.680;8.890;2022-12-13T11:09:52;5.70;90.10
26304;DHT22;57113;48.680;8.890;2022-12-13T11:12:22;5.70;90.20
26304;DHT22;57113;48.680;8.890;2022-12-13T11:14:56;5.60;90.30
26304;DHT22;57113;48.680;8.890;2022-12-13T11:17:26;5.60;90.30
26304;DHT22;57113;48.680;8.890;2022-12-13T11:19:58;5.60;90.40
26304;DHT22;57113;48.680;8.890;2022-12-13T11:22:29;5.60;90.50
26304;DHT22;57113;48.680;8.890;2022-12-13T11:25:02;5.50;90.50
26304;DHT22;57113;48.680;8.890;2022-12-13T11:27:39;5.50;90.60
26304;DHT22;57113;48.680;8.890;2022-12-13T11:30:15;5.50;90.60
26304;DHT22;57113;48.680;8.890;2022-12-13T11:41:31;5.20;90.70
26304;DHT22;57113;48.680;8.890;2022-12-13T11:47:00;4.80;89.90
26304;DHT22;57113;48.680;8.890;2022-12-13T11:49:32;4.90;90.20
26304;DHT22;57113;48.680;8.890;2022-12-13T11:52:03;4.90;90.30
26304;DHT22;57113;48.680;8.890;2022-12-13T11:54:45;4.90;90.40
26304;DHT22;57113;48.680;8.890;2022-12-13T11:59:56;5.00;90.50
26304;DHT22;57113;48.680;8.890;2022-12-13T12:02:31;5.00;90.50
26304;DHT22;57113;48.680;8.890;2022-12-13T12:05:46;5.00;90.60
26304;DHT22;57113;48.680;8.890;2022-12-13T12:07:49;5.10;90.60
26304;DHT22;57113;48.680;8.890;2022-12-13T12:10:39;5.10;90.60
26304;DHT22;57113;48.680;8.890;2022-12-13T12:13:15;5.10;90.70
26304;DHT22;57113;48.680;8.890;2022-12-13T12:15:48;5.10;90.70
26304;DHT22;57113;48.680;8.890;2022-12-13T12:18:16;5.10;90.70
26304;DHT22;57113;48.680;8.890;2022-12-13T12:20:52;5.10;90.70
26304;DHT22;57113;48.680;8.890;2022-12-13T12:26:20;5.20;90.80
26304;DHT22;57113;48.680;8.890;2022-12-13T12:34:14;5.20;90.80
26304;DHT22;57113;48.680;8.890;2022-12-13T12:43:01;5.20;90.90
26304;DHT22;57113;48.680;8.890;2022-12-13T12:45:40;5.20;90.80
26304;DHT22;57113;48.680;8.890;2022-12-13T12:51:20;5.20;90.90
26304;DHT22;57113;48.680;8.890;2022-12-13T12:54:35;5.20;90.90
26304;DHT22;57113;48.680;8.890;2022-12-13T12:56:58;5.20;90.90
26304;DHT22;57113;48.680;8.890;2022-12-13T13:02:27;5.20;91.00
26304;DHT22;57113;48.680;8.890;2022-12-13T13:05:02;5.20;91.00
26304;DHT22;57113;48.680;8.890;2022-12-13T13:07:37;5.20;91.00
26304;DHT22;57113;48.680;8.890;2022-12-13T13:10:04;5.20;91.00
26304;DHT22;57113;48.680;8.890;2022-12-13T13:12:39;5.20;91.00
26304;DHT22;57113;48.680;8.890;2022-12-13T13:17:57;5.10;91.00
26304;DHT22;57113;48.680;8.890;2022-12-13T13:20:24;5.10;91.00
26304;DHT22;57113;48.680;8.890;2022-12-13T13:22:54;5.10;91.00
26304;DHT22;57113;48.680;8.890;2022-12-13T13:25:29;5.10;91.00
26304;DHT22;57113;48.680;8.890;2022-12-13T13:28:15;5.20;91.00
26304;DHT22;57113;48.680;8.890;2022-12-13T13:31:02;5.10;91.10
26304;DHT22;57113;48.680;8.890;2022-12-13T13:36:06;5.10;91.10
26304;DHT22;57113;48.680;8.890;2022-12-13T13:38:48;5.20;91.10
26304;DHT22;57113;48.680;8.890;2022-12-13T13:41:39;5.20;91.20
26304;DHT22;57113;48.680;8.890;2022-12-13T13:47:36;5.10;91.20
26304;DHT22;57113;48.680;8.890;2022-12-13T13:55:51;5.10;91.20
26304;DHT22;57113;48.680;8.890;2022-12-13T14:07:13;4.60;92.60
26304;DHT22;57113;48.680;8.890;2022-12-13T14:10:04;4.60;91.00
26304;DHT22;57113;48.680;8.890;2022-12-13T14:29:44;4.70;92.10
26304;DHT22;57113;48.680;8.890;2022-12-13T14:34:43;4.80;92.30
26304;DHT22;57113;48.680;8.890;2022-12-13T14:37:29;4.80;92.50
26304;DHT22;57113;48.680;8.890;2022-12-13T14:39:56;4.90;92.70
26304;DHT22;57113;48.680;8.890;2022-12-13T14:42:24;4.80;92.90
26304;DHT22;57113;48.680;8.890;2022-12-13T14:44:52;4.90;93.40
26304;DHT22;57113;48.680;8.890;2022-12-13T14:47:19;4.90;94.90
26304;DHT22;57113;48.680;8.890;2022-12-13T14:49:47;4.90;95.70
26304;DHT22;57113;48.680;8.890;2022-12-13T14:52:26;4.90;97.20
26304;DHT22;57113;48.680;8.890;2022-12-13T14:54:54;4.90;97.80
26304;DHT22;57113;48.680;8.890;2022-12-13T14:57:23;4.90;96.60
26304;DHT22;57113;48.680;8.890;2022-12-13T14:59:51;4.90;96.20
26304;DHT22;57113;48.680;8.890;2022-12-13T15:02:28;5.10;93.30
26304;DHT22;57113;48.680;8.890;2022-12-13T15:04:59;5.20;90.50
26304;DHT22;57113;48.680;8.890;2022-12-13T15:07:35;5.40;90.20
26304;DHT22;57113;48.680;8.890;2022-12-13T15:10:05;5.70;90.90
26304;DHT22;57113;48.680;8.890;2022-12-13T15:12:41;5.80;89.50
26304;DHT22;57113;48.680;8.890;2022-12-13T15:15:13;5.90;89.20
26304;DHT22;57113;48.680;8.890;2022-12-13T15:17:41;5.90;89.10
26304;DHT22;57113;48.680;8.890;2022-12-13T15:20:23;5.80;90.00
26304;DHT22;57113;48.680;8.890;2022-12-13T16:34:28;5.20;89.60
